createdAt,value
2022-08-23T00:01:31.245Z,97002.97
2022-08-23T00:04:02.333Z,97005.72
2022-08-23T00:06:29.745Z,97016.88
2022-08-23T00:08:56.600Z,97013.31
2022-08-23T00:11:36.470Z,97004.09
2022-08-23T00:14:16.219Z,97004.63
2022-08-23T00:16:43.151Z,97004.41
2022-08-23T00:19:12.641Z,97010.56
2022-08-23T00:21:40.102Z,96998.84
2022-08-23T00:24:08.883Z,96996.72
2022-08-23T00:27:05.015Z,97000.13
2022-08-23T00:29:33.692Z,96987.47
2022-08-23T00:32:00.740Z,96999.13
2022-08-23T00:34:28.355Z,96998.88
2022-08-23T00:36:55.577Z,96993.84
2022-08-23T00:39:23.613Z,96995.09
2022-08-23T00:41:50.866Z,96993.66
2022-08-23T00:44:47.270Z,96988.91
2022-08-23T00:47:33.736Z,96985.53
2022-08-23T00:50:23.633Z,96989.50
2022-08-23T00:52:59.034Z,96991.44
2022-08-23T00:55:26.657Z,96992.72
2022-08-23T00:57:53.465Z,96995.63
2022-08-23T01:00:20.742Z,96996.03
2022-08-23T01:02:48.631Z,96993.59
2022-08-23T01:05:15.486Z,96994.50
2022-08-23T01:07:51.733Z,96994.50
2022-08-23T01:10:37.982Z,96994.44
2022-08-23T01:13:25.815Z,96995.78
2022-08-23T01:15:57.034Z,96999.13
2022-08-23T01:18:26.385Z,96992.06
2022-08-23T01:21:15.223Z,96985.81
2022-08-23T01:23:58.029Z,96991.38
2022-08-23T01:26:26.105Z,96994.13
2022-08-23T01:28:55.940Z,96998.41
2022-08-23T01:31:23.610Z,96999.81
2022-08-23T01:33:55.409Z,96998.47
2022-08-23T01:36:22.886Z,96996.56
2022-08-23T01:38:52.013Z,97002.19
2022-08-23T01:41:19.378Z,97002.81
2022-08-23T01:43:46.384Z,97003.59
2022-08-23T01:46:18.135Z,96998.84
2022-08-23T01:48:46.413Z,96994.91
2022-08-23T01:51:16.783Z,96994.25
2022-08-23T01:53:43.982Z,96998.63
2022-08-23T01:56:11.047Z,96996.72
2022-08-23T01:58:39.265Z,96998.22
2022-08-23T02:01:06.892Z,96994.72
2022-08-23T02:03:34.529Z,96989.44
2022-08-23T02:06:01.231Z,96995.03
2022-08-23T02:08:47.058Z,96994.38
2022-08-23T02:11:18.826Z,96998.44
2022-08-23T02:13:46.447Z,96992.91
2022-08-23T02:16:22.201Z,97006.09
2022-08-23T02:18:49.269Z,97006.16
2022-08-23T02:21:16.320Z,97014.47
2022-08-23T02:23:43.526Z,97008.22
2022-08-23T02:26:10.623Z,97013.78
2022-08-23T02:28:37.597Z,97013.16
2022-08-23T02:31:04.444Z,97010.38
2022-08-23T02:33:32.942Z,97010.22
2022-08-23T02:36:00.370Z,97013.66
2022-08-23T02:38:27.110Z,97008.56
2022-08-23T02:41:00.964Z,97013.25
2022-08-23T02:43:30.131Z,97007.47
2022-08-23T02:45:57.871Z,97015.63
2022-08-23T02:48:24.657Z,97013.41
2022-08-23T02:51:01.144Z,97008.56
2022-08-23T02:53:29.363Z,97012.63
2022-08-23T02:55:56.738Z,97014.44
2022-08-23T02:58:24.193Z,97018.31
2022-08-23T03:00:51.070Z,97018.97
2022-08-23T03:03:22.526Z,97015.41
2022-08-23T03:05:50.282Z,97013.28
2022-08-23T03:08:19.312Z,97016.41
2022-08-23T03:10:50.767Z,97018.34
2022-08-23T03:13:17.717Z,97008.53
2022-08-23T03:15:56.316Z,97013.19
2022-08-23T03:18:24.898Z,97011.59
2022-08-23T03:20:51.794Z,97018.41
2022-08-23T03:23:18.581Z,97023.78
2022-08-23T03:25:45.741Z,97024.31
2022-08-23T03:28:26.709Z,97019.19
2022-08-23T03:30:54.639Z,97019.72
2022-08-23T03:33:21.813Z,97020.81
2022-08-23T03:35:49.482Z,97018.44
2022-08-23T03:38:17.735Z,97015.31
2022-08-23T03:40:45.058Z,97026.81
2022-08-23T03:43:11.946Z,97031.00
2022-08-23T03:45:39.045Z,97035.03
2022-08-23T03:48:07.078Z,97032.81
2022-08-23T03:50:35.356Z,97036.75
2022-08-23T03:53:02.190Z,97034.34
2022-08-23T03:55:29.232Z,97039.16
2022-08-23T03:57:56.691Z,97043.19
2022-08-23T04:00:23.550Z,97042.09
2022-08-23T04:02:53.077Z,97043.28
2022-08-23T04:05:23.082Z,97048.78
2022-08-23T04:07:50.014Z,97048.53
2022-08-23T04:10:17.649Z,97049.94
2022-08-23T04:12:48.491Z,97053.97
2022-08-23T04:15:17.166Z,97057.09
2022-08-23T04:17:43.968Z,97056.19
2022-08-23T04:20:11.176Z,97058.88
2022-08-23T04:22:52.499Z,97058.88
2022-08-23T04:25:33.697Z,97060.09
2022-08-23T04:28:03.958Z,97061.44
2022-08-23T04:30:32.317Z,97070.34
2022-08-23T04:32:59.918Z,97068.31
2022-08-23T04:35:29.946Z,97069.72
2022-08-23T04:37:57.149Z,97069.44
2022-08-23T04:40:43.633Z,97072.13
2022-08-23T04:43:10.466Z,97074.25
2022-08-23T04:45:39.248Z,97073.44
2022-08-23T04:48:11.912Z,97065.88
2022-08-23T04:50:43.154Z,97068.75
2022-08-23T04:53:19.099Z,97067.47
2022-08-23T04:56:02.882Z,97074.34
2022-08-23T04:58:31.427Z,97077.22
2022-08-23T05:01:01.101Z,97079.44
2022-08-23T05:03:29.896Z,97084.94
2022-08-23T05:05:58.737Z,97076.13
2022-08-23T05:08:33.050Z,97086.66
2022-08-23T05:11:05.156Z,97088.78
2022-08-23T05:13:34.891Z,97093.06
2022-08-23T05:16:04.322Z,97096.56
2022-08-23T05:18:35.027Z,97096.72
2022-08-23T05:21:02.226Z,97101.19
2022-08-23T05:23:31.974Z,97102.97
2022-08-23T05:26:08.364Z,97112.25
2022-08-23T05:28:42.543Z,97114.31
2022-08-23T05:31:19.314Z,97118.56
2022-08-23T05:33:51.719Z,97114.81
2022-08-23T05:36:27.564Z,97121.50
2022-08-23T05:38:55.093Z,97121.13
2022-08-23T05:41:22.041Z,97121.50
2022-08-23T05:43:56.234Z,97121.22
2022-08-23T05:46:28.342Z,97120.84
2022-08-23T05:49:15.565Z,97123.50
2022-08-23T05:51:51.545Z,97132.31
2022-08-23T05:54:20.480Z,97143.06
2022-08-23T05:56:59.961Z,97139.91
2022-08-23T05:59:27.144Z,97138.91
2022-08-23T06:01:54.128Z,97144.22
2022-08-23T06:04:21.535Z,97144.47
2022-08-23T06:06:49.011Z,97146.06
2022-08-23T06:09:18.122Z,97149.06
2022-08-23T06:11:46.551Z,97147.31
2022-08-23T06:14:14.474Z,97150.41
2022-08-23T06:16:47.993Z,97155.47
2022-08-23T06:19:19.222Z,97155.22
2022-08-23T06:21:49.800Z,97148.66
2022-08-23T06:24:23.756Z,97160.03
2022-08-23T06:26:59.672Z,97160.34
2022-08-23T06:29:26.634Z,97159.22
2022-08-23T06:32:13.395Z,97156.00
2022-08-23T06:34:52.103Z,97162.59
2022-08-23T06:37:52.962Z,97169.91
2022-08-23T06:40:42.680Z,97162.63
2022-08-23T06:43:25.666Z,97163.47
2022-08-23T06:46:24.368Z,97171.34
2022-08-23T06:48:51.833Z,97161.81
2022-08-23T06:51:24.040Z,97163.44
2022-08-23T06:54:26.572Z,97159.09
2022-08-23T06:57:00.331Z,97162.34
2022-08-23T06:59:31.265Z,97156.47
2022-08-23T07:02:14.656Z,97159.56
2022-08-23T07:05:00.122Z,97159.25
2022-08-23T07:07:44.065Z,97164.41
2022-08-23T07:10:26.437Z,97163.38
2022-08-23T07:12:55.478Z,97166.50
2022-08-23T07:15:22.737Z,97171.66
2022-08-23T07:17:50.037Z,97173.91
2022-08-23T07:20:19.425Z,97174.19
2022-08-23T07:22:46.787Z,97170.88
2022-08-23T07:25:14.130Z,97177.97
2022-08-23T07:27:45.046Z,97175.38
2022-08-23T07:30:14.431Z,97173.53
2022-08-23T07:32:41.187Z,97175.91
2022-08-23T07:35:18.315Z,97181.06
2022-08-23T07:37:46.059Z,97175.78
2022-08-23T07:40:20.603Z,97178.88
2022-08-23T07:42:52.574Z,97173.63
2022-08-23T07:45:23.082Z,97178.75
2022-08-23T07:47:55.014Z,97180.38
2022-08-23T07:50:30.416Z,97171.53
2022-08-23T07:53:03.151Z,97187.78
2022-08-23T07:55:30.599Z,97177.53
2022-08-23T07:58:13.873Z,97180.53
2022-08-23T08:00:54.262Z,97184.97
2022-08-23T08:03:55.042Z,97185.22
2022-08-23T08:06:27.254Z,97182.03
2022-08-23T08:08:54.498Z,97182.88
2022-08-23T08:11:24.662Z,97185.78
2022-08-23T08:13:51.744Z,97191.72
2022-08-23T08:16:29.864Z,97182.69
2022-08-23T08:18:59.468Z,97191.16
2022-08-23T08:21:45.615Z,97179.50
2022-08-23T08:24:32.577Z,97189.50
2022-08-23T08:27:07.895Z,97196.66
2022-08-23T08:29:34.976Z,97190.56
2022-08-23T08:32:01.909Z,97190.06
2022-08-23T08:34:30.050Z,97196.47
2022-08-23T08:36:58.714Z,97188.19
2022-08-23T08:39:31.705Z,97198.66
2022-08-23T08:42:13.098Z,97197.38
2022-08-23T08:44:53.388Z,97196.78
2022-08-23T08:47:49.333Z,97197.03
2022-08-23T08:50:27.214Z,97197.94
2022-08-23T08:53:16.305Z,97193.31
2022-08-23T08:56:29.799Z,97193.44
2022-08-23T08:59:28.103Z,97193.50
2022-08-23T09:01:55.640Z,97198.53
2022-08-23T09:04:30.422Z,97187.50
2022-08-23T09:07:32.026Z,97191.88
2022-08-23T09:10:03.938Z,97188.56
2022-08-23T09:12:34.210Z,97189.53
2022-08-23T09:15:19.704Z,97181.31
2022-08-23T09:17:57.917Z,97179.91
2022-08-23T09:20:32.917Z,97187.63
2022-08-23T09:23:13.147Z,97184.88
2022-08-23T09:25:41.972Z,97187.78
2022-08-23T09:28:16.014Z,97191.34
2022-08-23T09:31:08.331Z,97192.19
2022-08-23T09:33:46.026Z,97191.72
2022-08-23T09:36:36.969Z,97186.31
2022-08-23T09:39:10.185Z,97189.84
2022-08-23T09:41:42.085Z,97196.22
2022-08-23T09:44:16.876Z,97192.03
2022-08-23T09:46:44.343Z,97196.94
2022-08-23T09:49:25.722Z,97188.66
2022-08-23T09:51:58.346Z,97196.47
2022-08-23T09:54:34.698Z,97188.84
2022-08-23T09:57:06.104Z,97186.09
2022-08-23T09:59:41.873Z,97191.72
2022-08-23T10:02:33.546Z,97181.25
2022-08-23T10:05:28.514Z,97184.06
2022-08-23T10:08:01.059Z,97182.16
2022-08-23T10:10:43.796Z,97175.94
2022-08-23T10:13:16.669Z,97170.44
2022-08-23T10:15:49.671Z,97175.41
2022-08-23T10:18:39.227Z,97168.44
2022-08-23T10:21:29.419Z,97160.09
2022-08-23T10:24:11.846Z,97165.88
2022-08-23T10:26:45.735Z,97158.84
2022-08-23T10:29:36.742Z,97162.44
2022-08-23T10:33:01.564Z,97163.94
2022-08-23T10:35:51.550Z,97167.56
2022-08-23T10:38:31.253Z,97157.06
2022-08-23T10:41:18.552Z,97156.38
2022-08-23T10:44:15.095Z,97150.09
2022-08-23T10:46:53.741Z,97136.78
2022-08-23T10:49:21.417Z,97147.41
2022-08-23T10:51:51.913Z,97143.22
2022-08-23T10:54:35.444Z,97140.44
2022-08-23T10:57:06.371Z,97137.66
2022-08-23T10:59:34.834Z,97129.97
2022-08-23T11:02:25.139Z,97139.78
2022-08-23T11:05:10.511Z,97133.41
2022-08-23T11:07:41.463Z,97132.59
2022-08-23T11:10:26.046Z,97136.03
2022-08-23T11:12:55.230Z,97127.56
2022-08-23T11:15:27.805Z,97122.06
2022-08-23T11:17:59.216Z,97131.31
2022-08-23T11:20:52.153Z,97127.19
2022-08-23T11:23:42.441Z,97118.84
2022-08-23T11:26:37.600Z,97128.00
2022-08-23T11:29:07.638Z,97126.63
2022-08-23T11:31:43.046Z,97120.28
2022-08-23T11:34:29.727Z,97128.69
2022-08-23T11:37:18.634Z,97126.59
2022-08-23T11:39:59.225Z,97119.47
2022-08-23T11:42:38.166Z,97124.38
2022-08-23T11:45:27.423Z,97115.91
2022-08-23T11:48:17.387Z,97116.59
2022-08-23T11:51:05.393Z,97123.56
2022-08-23T11:53:53.678Z,97120.75
2022-08-23T11:56:38.521Z,97118.63
2022-08-23T11:59:54.571Z,97120.00
2022-08-23T12:02:38.351Z,97112.44
2022-08-23T12:05:42.806Z,97115.34
2022-08-23T12:08:09.586Z,97116.06
2022-08-23T12:10:42.921Z,97113.97
2022-08-23T12:13:20.610Z,97112.53
2022-08-23T12:16:16.848Z,97115.38
2022-08-23T12:18:47.729Z,97107.59
2022-08-23T12:21:29.510Z,97113.91
2022-08-23T12:24:03.036Z,97106.19
2022-08-23T12:26:38.478Z,97116.03
2022-08-23T12:29:44.076Z,97111.09
2022-08-23T12:32:19.653Z,97114.63
2022-08-23T12:35:04.294Z,97118.84
2022-08-23T12:37:43.649Z,97117.44
2022-08-23T12:40:22.981Z,97113.25
2022-08-23T12:42:51.413Z,97115.34
2022-08-23T12:45:21.491Z,97112.56
2022-08-23T12:48:00.216Z,97110.47
2022-08-23T12:50:33.123Z,97111.16
2022-08-23T12:53:08.368Z,97116.09
2022-08-23T12:55:47.420Z,97113.97
2022-08-23T12:58:16.360Z,97109.75
2022-08-23T13:00:53.402Z,97111.16
2022-08-23T13:03:34.013Z,97108.34
2022-08-23T13:06:05.370Z,97105.53
2022-08-23T13:08:48.052Z,97111.16
2022-08-23T13:11:19.848Z,97110.44
2022-08-23T13:13:46.993Z,97109.72
2022-08-23T13:16:27.073Z,97109.75
2022-08-23T13:18:56.324Z,97103.44
2022-08-23T13:21:23.007Z,97102.72
2022-08-23T13:23:53.832Z,97106.94
2022-08-23T13:26:39.725Z,97110.44
2022-08-23T13:29:15.213Z,97109.75
2022-08-23T13:32:03.418Z,97109.75
2022-08-23T13:34:40.025Z,97098.50
2022-08-23T13:37:27.417Z,97106.94
2022-08-23T13:39:58.066Z,97109.03
2022-08-23T13:42:29.020Z,97102.00
2022-08-23T13:44:55.770Z,97108.34
2022-08-23T13:47:28.509Z,97106.94
2022-08-23T13:49:56.160Z,97100.63
2022-08-23T13:52:50.991Z,97107.63
2022-08-23T13:55:13.062Z,97104.13
2022-08-23T13:57:41.495Z,97104.84
2022-08-23T14:00:10.796Z,97104.84
2022-08-23T14:02:38.291Z,97109.75
2022-08-23T14:05:09.627Z,97105.53
2022-08-23T14:07:36.635Z,97109.75
2022-08-23T14:10:04.683Z,97106.22
2022-08-23T14:12:33.489Z,97104.13
2022-08-23T14:15:02.846Z,97104.13
2022-08-23T14:17:30.997Z,97103.34
2022-08-23T14:22:44.857Z,97100.31
2022-08-23T14:25:12.612Z,97100.91
2022-08-23T14:27:41.382Z,97097.22
2022-08-23T14:30:11.501Z,97091.44
2022-08-23T14:32:41.290Z,97082.78
2022-08-23T14:35:08.264Z,97097.97
2022-08-23T14:40:24.433Z,97097.03
2022-08-23T14:42:51.136Z,97088.31
2022-08-23T14:45:18.569Z,97098.47
2022-08-23T14:47:45.652Z,97095.47
2022-08-23T14:50:13.722Z,97097.59
2022-08-23T14:52:45.707Z,97093.28
2022-08-23T14:55:13.829Z,97093.28
2022-08-23T14:57:41.225Z,97089.75
2022-08-23T15:00:13.741Z,97098.13
2022-08-23T15:02:46.644Z,97100.00
2022-08-23T15:05:14.516Z,97092.66
2022-08-23T15:07:41.372Z,97091.41
2022-08-23T15:10:10.129Z,97091.03
2022-08-23T15:15:24.422Z,97085.63
2022-08-23T15:17:54.805Z,97089.47
2022-08-23T15:20:27.932Z,97096.94
2022-08-23T15:22:55.572Z,97085.78
2022-08-23T15:25:23.926Z,97086.63
2022-08-23T15:27:51.154Z,97085.31
2022-08-23T15:30:18.225Z,97085.25
2022-08-23T15:32:52.783Z,97088.94
2022-08-23T15:35:25.363Z,97086.16
2022-08-23T15:37:54.510Z,97081.91
2022-08-23T15:40:21.442Z,97088.63
2022-08-23T15:42:49.076Z,97079.34
2022-08-23T15:45:15.905Z,97087.06
2022-08-23T15:47:53.291Z,97088.84
2022-08-23T15:50:23.280Z,97076.94
2022-08-23T15:52:50.615Z,97071.31
2022-08-23T15:55:17.722Z,97070.16
2022-08-23T15:57:47.218Z,97069.78
2022-08-23T16:00:17.723Z,97054.41
2022-08-23T16:03:14.447Z,97058.59
2022-08-23T16:05:32.245Z,97047.94
2022-08-23T16:07:59.684Z,97052.19
2022-08-23T16:10:27.502Z,97049.91
2022-08-23T16:12:55.286Z,97045.66
2022-08-23T16:15:22.387Z,97054.97
2022-08-23T16:17:49.854Z,97055.78
2022-08-23T16:20:17.677Z,97051.81
2022-08-23T16:22:44.415Z,97056.66
2022-08-23T16:25:11.286Z,97052.63
2022-08-23T16:27:38.126Z,97035.31
2022-08-23T16:30:06.014Z,97036.28
2022-08-23T16:32:32.706Z,97039.31
2022-08-23T16:34:59.442Z,97045.69
2022-08-23T16:37:26.205Z,97040.38
2022-08-23T16:39:54.459Z,97041.59
2022-08-23T16:42:21.361Z,97043.97
2022-08-23T16:44:48.687Z,97043.56
2022-08-23T16:47:16.277Z,97049.00
2022-08-23T16:49:43.660Z,97041.78
2022-08-23T16:52:10.796Z,97042.69
2022-08-23T16:54:39.179Z,97038.97
2022-08-23T16:57:06.212Z,97050.06
2022-08-23T16:59:36.171Z,97055.28
2022-08-23T17:02:10.880Z,97056.81
2022-08-23T17:04:38.053Z,97056.09
2022-08-23T17:07:05.127Z,97058.09
2022-08-23T17:09:31.940Z,97061.84
2022-08-23T17:11:58.809Z,97062.84
2022-08-23T17:14:26.324Z,97061.50
2022-08-23T17:16:53.273Z,97052.84
2022-08-23T17:19:20.094Z,97054.72
2022-08-23T17:21:46.832Z,97057.63
2022-08-23T17:24:13.639Z,97067.22
2022-08-23T17:26:40.326Z,97056.03
2022-08-23T17:29:09.352Z,97064.84
2022-08-23T17:31:36.949Z,97064.81
2022-08-23T17:34:04.478Z,97064.50
2022-08-23T17:36:31.113Z,97071.78
2022-08-23T17:38:59.369Z,97066.41
2022-08-23T17:41:27.530Z,97075.00
2022-08-23T17:43:55.322Z,97070.94
2022-08-23T17:46:22.661Z,97077.38
2022-08-23T17:48:49.378Z,97072.50
2022-08-23T17:51:16.095Z,97080.22
2022-08-23T17:53:43.402Z,97083.03
2022-08-23T17:56:12.336Z,97078.81
2022-08-23T17:58:39.459Z,97085.78
2022-08-23T18:01:06.521Z,97094.09
2022-08-23T18:03:33.632Z,97084.84
2022-08-23T18:06:00.578Z,97095.97
2022-08-23T18:08:27.344Z,97093.78
2022-08-23T18:10:54.007Z,97094.38
2022-08-23T18:13:20.722Z,97101.28
2022-08-23T18:15:47.478Z,97101.88
2022-08-23T18:18:14.515Z,97107.28
2022-08-23T18:20:41.377Z,97104.22
2022-08-23T18:23:08.330Z,97101.88
2022-08-23T18:25:35.395Z,97102.94
2022-08-23T18:28:09.774Z,97108.22
2022-08-23T18:30:40.206Z,97109.94
2022-08-23T18:33:07.086Z,97113.97
2022-08-23T18:35:34.580Z,97122.88
2022-08-23T18:38:01.314Z,97117.09
2022-08-23T18:40:29.395Z,97116.31
2022-08-23T18:42:56.429Z,97129.41
2022-08-23T18:45:23.305Z,97132.00
2022-08-23T18:47:50.205Z,97130.34
2022-08-23T18:50:17.874Z,97141.91
2022-08-23T18:52:44.743Z,97143.06
2022-08-23T18:55:11.483Z,97141.47
2022-08-23T18:57:39.018Z,97144.66
2022-08-23T19:00:09.690Z,97140.63
2022-08-23T19:02:36.433Z,97147.91
2022-08-23T19:05:03.705Z,97157.94
2022-08-23T19:07:30.696Z,97155.75
2022-08-23T19:09:57.419Z,97158.53
2022-08-23T19:12:24.204Z,97163.47
2022-08-23T19:14:50.867Z,97162.75
2022-08-23T19:17:17.606Z,97170.31
2022-08-23T19:19:44.293Z,97177.16
2022-08-23T19:22:11.006Z,97173.56
2022-08-23T19:24:37.825Z,97173.56
2022-08-23T19:27:04.989Z,97177.72
2022-08-23T19:29:31.955Z,97179.63
2022-08-23T19:31:59.342Z,97184.78
2022-08-23T19:34:26.837Z,97183.78
2022-08-23T19:37:00.686Z,97189.91
2022-08-23T19:39:29.050Z,97183.41
2022-08-23T19:41:55.716Z,97188.78
2022-08-23T19:44:22.684Z,97189.44
2022-08-23T19:46:50.139Z,97198.53
2022-08-23T19:49:16.942Z,97188.16
2022-08-23T19:51:43.994Z,97196.59
2022-08-23T19:54:12.541Z,97196.59
2022-08-23T19:56:44.859Z,97204.13
2022-08-23T19:59:16.564Z,97203.44
2022-08-23T20:01:43.401Z,97218.06
2022-08-23T20:04:10.984Z,97221.38
2022-08-23T20:06:37.829Z,97220.50
2022-08-23T20:09:05.810Z,97220.22
2022-08-23T20:11:32.770Z,97213.63
2022-08-23T20:14:00.216Z,97214.94
2022-08-23T20:16:28.433Z,97216.13
2022-08-23T20:18:55.323Z,97219.38
2022-08-23T20:21:23.611Z,97214.53
2022-08-23T20:24:04.124Z,97214.00
2022-08-23T20:26:35.058Z,97216.78
2022-08-23T20:29:04.182Z,97211.81
2022-08-23T20:31:36.090Z,97209.44
2022-08-23T20:34:04.774Z,97209.94
2022-08-23T20:36:33.409Z,97210.22
2022-08-23T20:39:01.238Z,97212.00
2022-08-23T20:41:29.735Z,97213.22
2022-08-23T20:43:57.069Z,97214.78
2022-08-23T20:46:24.318Z,97222.03
2022-08-23T20:48:52.021Z,97213.97
2022-08-23T20:51:19.664Z,97223.88
2022-08-23T20:53:46.715Z,97226.66
2022-08-23T20:56:13.482Z,97220.31
2022-08-23T20:58:40.297Z,97222.25
2022-08-23T21:01:10.343Z,97222.13
2022-08-23T21:03:38.678Z,97228.28
2022-08-23T21:06:07.584Z,97227.50
2022-08-23T21:08:35.136Z,97224.66
2022-08-23T21:11:08.958Z,97218.22
2022-08-23T21:13:35.994Z,97215.88
2022-08-23T21:16:02.939Z,97217.81
2022-08-23T21:18:29.666Z,97217.03
2022-08-23T21:20:56.790Z,97216.13
2022-08-23T21:23:24.766Z,97212.50
2022-08-23T21:25:56.102Z,97207.59
2022-08-23T21:28:24.303Z,97211.84
2022-08-23T21:30:51.163Z,97204.22
2022-08-23T21:33:19.263Z,97197.78
2022-08-23T21:35:46.140Z,97206.63
2022-08-23T21:38:12.837Z,97209.91
2022-08-23T21:40:39.862Z,97217.38
2022-08-23T21:43:06.618Z,97214.53
2022-08-23T21:45:33.822Z,97220.00
2022-08-23T21:48:01.435Z,97217.78
2022-08-23T21:50:28.632Z,97214.88
2022-08-23T21:52:56.577Z,97213.16
2022-08-23T21:55:36.901Z,97220.50
2022-08-23T21:58:03.984Z,97216.16
2022-08-23T22:00:31.303Z,97210.53
2022-08-23T22:02:58.566Z,97217.34
2022-08-23T22:05:26.546Z,97208.22
2022-08-23T22:07:53.766Z,97212.31
2022-08-23T22:10:21.074Z,97215.03
2022-08-23T22:12:47.798Z,97215.09
2022-08-23T22:15:15.086Z,97215.09
2022-08-23T22:17:41.868Z,97212.03
2022-08-23T22:20:09.609Z,97209.03
2022-08-23T22:22:36.796Z,97208.97
2022-08-23T22:25:04.064Z,97206.88
2022-08-23T22:27:32.402Z,97210.25
2022-08-23T22:29:59.484Z,97206.53
2022-08-23T22:32:26.657Z,97198.56
2022-08-23T22:34:53.396Z,97208.69
2022-08-23T22:37:20.375Z,97208.44
2022-08-23T22:39:47.719Z,97207.09
2022-08-23T22:42:16.332Z,97212.50
2022-08-23T22:44:43.030Z,97214.41
2022-08-23T22:47:10.051Z,97217.81
2022-08-23T22:49:37.983Z,97214.81
2022-08-23T22:52:04.800Z,97217.44
2022-08-23T22:54:31.490Z,97215.16
2022-08-23T22:56:58.465Z,97219.94
2022-08-23T22:59:27.666Z,97217.19
2022-08-23T23:01:59.869Z,97222.59
2022-08-23T23:04:30.005Z,97220.81
2022-08-23T23:06:57.440Z,97222.66
2022-08-23T23:09:24.778Z,97211.28
2022-08-23T23:11:52.145Z,97217.44
2022-08-23T23:14:20.633Z,97214.03
2022-08-23T23:16:49.427Z,97220.19
2022-08-23T23:19:36.235Z,97223.69
2022-08-23T23:22:04.002Z,97231.91
2022-08-23T23:24:37.777Z,97220.59
2022-08-23T23:27:04.907Z,97221.25
2022-08-23T23:29:32.375Z,97221.31
2022-08-23T23:31:59.535Z,97232.31
2022-08-23T23:34:27.896Z,97230.34
2022-08-23T23:36:56.378Z,97223.22
2022-08-23T23:39:23.466Z,97225.91
2022-08-23T23:41:50.640Z,97223.03
2022-08-23T23:44:17.304Z,97220.44
2022-08-23T23:46:56.460Z,97218.31
2022-08-23T23:49:23.510Z,97214.56
2022-08-23T23:51:58.689Z,97211.19
2022-08-23T23:54:25.650Z,97217.44
2022-08-23T23:56:52.390Z,97213.78
2022-08-23T23:59:19.598Z,97217.19
